Time;durP1;ratioP1;P1;durP2;ratioP2;P2;SDS_P1;SDS_P2;PMS_P1;PMS_P2;Temp;Humidity;BMP_temperature;BMP_pressure;BME280_temperature;BME280_humidity;BME280_pressure;Samples;Min_cycle;Max_cycle;Signal;HPM_P1;HPM_P2
2023/08/11 00:00:32;;;;;;;4.45;1.90;;;;;;;17.42;66.96;96677.38;5013683;28;20180;-69
2023/08/11 00:02:59;;;;;;;3.38;2.00;;;;;;;17.34;67.74;96672.56;5013415;28;20058;-69
2023/08/11 00:05:26;;;;;;;2.58;1.88;;;;;;;17.30;67.96;96676.38;5013348;28;20108;-69
2023/08/11 00:07:57;;;;;;;1.77;1.67;;;;;;;17.21;67.96;96683.09;5013672;28;20128;-69
2023/08/11 00:10:25;;;;;;;2.60;1.90;;;;;;;17.07;68.05;96675.19;5013372;28;20054;-69
2023/08/11 00:12:54;;;;;;;2.88;1.98;;;;;;;17.01;68.25;96677.22;5013446;28;20429;-69
2023/08/11 00:15:24;;;;;;;2.17;1.98;;;;;;;16.96;68.19;96678.44;5013236;28;20088;-69
2023/08/11 00:17:53;;;;;;;3.50;2.00;;;;;;;16.80;68.66;96676.78;5013188;28;20505;-69
2023/08/11 00:20:21;;;;;;;3.25;2.15;;;;;;;16.76;69.34;96673.44;5013218;28;20046;-69
2023/08/11 00:22:48;;;;;;;3.33;2.35;;;;;;;16.74;69.20;96671.84;5013165;28;20527;-69
2023/08/11 00:25:15;;;;;;;2.88;1.95;;;;;;;16.74;69.25;96675.31;5013097;28;20436;-69
2023/08/11 00:27:43;;;;;;;2.60;2.00;;;;;;;16.73;69.41;96678.91;5013204;28;20045;-69
2023/08/11 00:30:13;;;;;;;3.75;2.25;;;;;;;16.76;69.54;96669.94;5013055;28;20530;-69
2023/08/11 00:32:40;;;;;;;3.90;2.10;;;;;;;16.70;69.28;96670.34;5013169;28;20106;-69
2023/08/11 00:35:08;;;;;;;2.45;1.98;;;;;;;16.67;69.54;96674.00;5013380;28;20081;-69
2023/08/11 00:37:35;;;;;;;5.18;2.40;;;;;;;16.66;69.50;96675.81;5013027;28;20507;-69
2023/08/11 00:40:05;;;;;;;2.45;2.17;;;;;;;16.57;69.61;96662.31;5013112;28;20500;-69
2023/08/11 00:42:32;;;;;;;3.20;2.42;;;;;;;16.44;70.05;96680.69;5013193;28;20060;-69
2023/08/11 00:44:59;;;;;;;4.72;2.17;;;;;;;16.36;69.99;96676.72;5015281;28;20137;-69
2023/08/11 00:47:28;;;;;;;3.53;2.22;;;;;;;16.32;70.05;96675.19;5016846;28;20062;-69
2023/08/11 00:49:55;;;;;;;2.83;2.30;;;;;;;16.23;70.20;96676.59;5016757;28;20054;-69
2023/08/11 00:52:23;;;;;;;2.50;2.30;;;;;;;16.20;70.15;96674.13;5016807;28;20058;-69
2023/08/11 00:54:53;;;;;;;2.45;2.25;;;;;;;16.14;70.31;96677.97;5016616;28;20075;-69
2023/08/11 00:57:20;;;;;;;4.18;2.25;;;;;;;16.12;70.27;96676.34;5016689;28;20050;-69
2023/08/11 00:59:48;;;;;;;3.75;2.35;;;;;;;16.09;70.40;96676.53;5016562;28;20407;-70
2023/08/11 01:02:15;;;;;;;2.88;2.58;;;;;;;15.97;70.49;96675.47;5016874;28;20177;-69
2023/08/11 01:04:44;;;;;;;2.22;2.03;;;;;;;15.90;70.90;96675.78;5016814;28;20046;-69
2023/08/11 01:07:27;;;;;;;2.40;2.20;;;;;;;15.79;70.99;96680.81;5016405;28;20054;-69
2023/08/11 01:10:08;;;;;;;3.53;2.13;;;;;;;15.76;71.22;96671.31;5016403;28;20108;-69
2023/08/11 01:12:43;;;;;;;3.38;2.55;;;;;;;15.76;71.23;96673.94;5016405;28;20077;-69
2023/08/11 01:15:18;;;;;;;3.47;2.22;;;;;;;15.76;71.06;96673.94;5016496;28;20503;-69
2023/08/11 01:17:50;;;;;;;2.78;2.33;;;;;;;15.77;71.05;96678.28;5016276;28;20100;-69
2023/08/11 01:20:19;;;;;;;2.63;2.40;;;;;;;15.67;71.15;96682.38;5016102;28;20046;-69
2023/08/11 01:22:51;;;;;;;2.58;2.05;;;;;;;15.68;71.04;96675.31;5016260;28;20502;-69
2023/08/11 01:25:20;;;;;;;3.03;2.40;;;;;;;15.65;71.20;96676.31;5015992;28;20054;-69
2023/08/11 01:27:53;;;;;;;2.40;2.20;;;;;;;15.63;71.47;96680.84;5016137;28;20503;-69
2023/08/11 01:30:20;;;;;;;2.70;2.30;;;;;;;15.57;71.73;96682.06;5016146;28;20041;-70
2023/08/11 01:32:47;;;;;;;3.22;2.65;;;;;;;15.56;71.44;96677.69;5016078;28;20046;-69
2023/08/11 01:35:14;;;;;;;3.88;2.13;;;;;;;15.53;71.53;96681.34;5016012;28;20483;-69
2023/08/11 01:37:43;;;;;;;2.50;2.30;;;;;;;15.48;71.71;96682.56;5015901;28;20053;-69
2023/08/11 01:40:11;;;;;;;2.45;2.15;;;;;;;15.38;72.02;96677.78;5015757;28;20487;-69
2023/08/11 01:42:41;;;;;;;2.50;2.30;;;;;;;15.31;72.22;96675.56;5015906;28;20133;-69
2023/08/11 01:45:10;;;;;;;2.85;2.38;;;;;;;15.35;72.19;96679.75;5015815;28;20495;-69
2023/08/11 01:47:38;;;;;;;2.65;2.45;;;;;;;15.28;72.09;96681.88;5015720;28;20143;-69
2023/08/11 01:50:07;;;;;;;2.42;2.17;;;;;;;15.25;72.39;96676.75;5015765;28;20133;-69
2023/08/11 01:52:36;;;;;;;3.17;2.15;;;;;;;15.21;72.12;96676.09;5015623;28;20057;-70
2023/08/11 01:55:03;;;;;;;2.38;2.17;;;;;;;15.15;72.38;96682.53;5015520;28;20403;-69
2023/08/11 01:57:30;;;;;;;2.50;2.30;;;;;;;15.04;72.77;96682.28;5015581;28;20060;-69
2023/08/11 01:59:59;;;;;;;2.58;2.38;;;;;;;14.95;73.05;96680.97;5015381;28;20137;-69
2023/08/11 02:02:27;;;;;;;2.53;2.33;;;;;;;14.98;73.15;96679.97;5015450;28;20092;-70
2023/08/11 02:04:54;;;;;;;2.42;2.22;;;;;;;14.97;73.11;96676.50;5015355;28;20042;-69
2023/08/11 02:07:20;;;;;;;4.00;2.40;;;;;;;14.99;72.57;96687.78;5015288;28;20054;-69
2023/08/11 02:09:49;;;;;;;7.18;2.13;;;;;;;15.01;72.30;96685.06;5015235;28;20492;-70
2023/08/11 02:12:16;;;;;;;3.00;2.30;;;;;;;15.00;72.00;96680.75;5015316;28;20045;-69
2023/08/11 02:14:43;;;;;;;2.30;2.10;;;;;;;14.98;71.88;96675.56;5015479;28;20050;-69
2023/08/11 02:17:11;;;;;;;2.40;2.20;;;;;;;14.99;71.72;96681.69;5015156;28;20050;-69
2023/08/11 02:19:38;;;;;;;2.47;2.28;;;;;;;14.94;71.34;96683.69;5015059;28;20060;-69
2023/08/11 02:22:06;;;;;;;3.22;2.33;;;;;;;14.91;71.43;96680.28;5015009;28;20440;-69
2023/08/11 02:24:34;;;;;;;2.03;1.92;;;;;;;14.91;71.75;96682.09;5014842;28;20053;-69
2023/08/11 02:27:02;;;;;;;3.33;2.15;;;;;;;14.93;71.47;96687.28;5014946;28;20049;-70
2023/08/11 02:29:29;;;;;;;2.10;2.00;;;;;;;14.93;71.53;96688.09;5015030;28;20049;-69
2023/08/11 02:31:56;;;;;;;4.20;2.28;;;;;;;14.88;70.72;96688.38;5014937;28;20077;-69
2023/08/11 02:34:24;;;;;;;3.53;2.10;;;;;;;14.83;71.20;96689.53;5014887;28;20054;-70
2023/08/11 02:36:52;;;;;;;2.30;2.08;;;;;;;14.76;71.53;96681.94;5014930;28;20132;-69
2023/08/11 02:39:19;;;;;;;2.40;2.15;;;;;;;14.75;70.64;96690.75;5014742;28;20046;-69
2023/08/11 02:41:46;;;;;;;2.55;2.30;;;;;;;14.66;70.93;96693.91;5014774;28;20052;-69
2023/08/11 02:44:13;;;;;;;2.25;2.10;;;;;;;14.57;71.11;96692.56;5014720;28;20085;-69
2023/08/11 02:46:40;;;;;;;2.40;2.20;;;;;;;14.51;71.33;96692.91;5014613;28;20054;-69
2023/08/11 02:49:08;;;;;;;4.78;1.95;;;;;;;14.53;71.26;96689.25;5014619;28;20049;-69
2023/08/11 02:51:36;;;;;;;2.58;2.03;;;;;;;14.49;71.70;96694.75;5014473;28;20542;-69
2023/08/11 02:54:04;;;;;;;2.35;2.15;;;;;;;14.47;71.82;96692.19;5014670;28;20053;-69
2023/08/11 02:56:31;;;;;;;2.53;2.33;;;;;;;14.40;71.63;96694.31;5014409;28;20499;-69
2023/08/11 02:58:58;;;;;;;2.65;2.45;;;;;;;14.36;71.73;96690.09;5014493;28;20100;-69
2023/08/11 03:01:25;;;;;;;2.67;2.00;;;;;;;14.33;71.84;96687.63;5014321;28;20140;-69
2023/08/11 03:03:53;;;;;;;2.63;1.98;;;;;;;14.31;71.92;96691.28;5014503;28;20050;-69
2023/08/11 03:06:20;;;;;;;3.40;1.90;;;;;;;14.24;71.99;96696.00;5014090;28;20112;-69
2023/08/11 03:08:48;;;;;;;2.38;2.17;;;;;;;14.17;72.26;96697.25;5014568;28;20077;-69
2023/08/11 03:11:15;;;;;;;2.67;2.42;;;;;;;14.17;71.94;96699.88;5014388;28;20046;-70
2023/08/11 03:13:42;;;;;;;2.50;2.30;;;;;;;14.14;72.00;96693.84;5014218;28;20411;-70
2023/08/11 03:16:09;;;;;;;2.58;2.15;;;;;;;14.11;72.11;96693.13;5014098;28;20410;-70
2023/08/11 03:18:37;;;;;;;2.47;2.15;;;;;;;14.09;72.27;96703.72;5014143;28;20454;-70
2023/08/11 03:21:04;;;;;;;2.40;2.20;;;;;;;14.09;72.52;96708.97;5014050;28;20092;-70
2023/08/11 03:23:31;;;;;;;2.28;1.88;;;;;;;14.07;72.55;96712.63;5014013;28;20522;-69
2023/08/11 03:25:59;;;;;;;2.90;2.10;;;;;;;14.08;72.35;96709.91;5013707;28;20050;-69
2023/08/11 03:28:26;;;;;;;3.85;2.20;;;;;;;14.07;72.09;96705.59;5013909;28;20088;-69
2023/08/11 03:30:53;;;;;;;2.15;2.05;;;;;;;14.04;72.35;96716.25;5014063;28;20045;-69
2023/08/11 03:33:21;;;;;;;2.92;2.10;;;;;;;14.01;72.61;96711.16;5013820;28;20500;-70
2023/08/11 03:35:49;;;;;;;6.35;2.28;;;;;;;13.94;73.04;96710.59;5013911;28;20054;-69
2023/08/11 03:38:17;;;;;;;2.35;2.00;;;;;;;13.91;73.45;96710.75;5013825;28;20050;-69
2023/08/11 03:40:44;;;;;;;2.22;2.03;;;;;;;13.92;73.68;96712.47;5013717;28;20056;-69
2023/08/11 03:43:12;;;;;;;4.10;2.40;;;;;;;13.94;73.39;96709.75;5013800;28;20045;-69
2023/08/11 03:45:41;;;;;;;2.65;2.22;;;;;;;13.94;73.47;96717.63;5013783;28;20100;-69
2023/08/11 03:48:08;;;;;;;2.90;2.30;;;;;;;13.95;73.61;96712.31;5013687;28;20104;-70
2023/08/11 03:50:36;;;;;;;2.50;2.20;;;;;;;13.97;74.00;96714.88;5013828;28;20080;-70
2023/08/11 03:53:03;;;;;;;2.35;2.15;;;;;;;13.98;74.08;96709.53;5013700;28;20049;-69
2023/08/11 03:55:30;;;;;;;3.35;2.08;;;;;;;13.93;75.39;96714.16;5013478;28;20133;-69
2023/08/11 03:58:00;;;;;;;2.97;2.50;;;;;;;13.98;74.96;96709.53;5013640;28;20563;-70
2023/08/11 04:00:29;;;;;;;2.63;2.42;;;;;;;14.13;75.29;96710.56;5013517;28;20072;-69
2023/08/11 04:02:56;;;;;;;3.15;2.30;;;;;;;14.45;74.91;96716.91;5013466;28;20042;-69
2023/08/11 04:05:24;;;;;;;2.72;2.45;;;;;;;15.07;72.92;96716.34;5013821;28;20476;-69
2023/08/11 04:07:51;;;;;;;4.47;2.13;;;;;;;15.67;70.98;96719.28;5013372;28;20056;-69
2023/08/11 04:10:18;;;;;;;2.63;2.10;;;;;;;16.32;69.05;96719.22;5013317;28;20495;-69
2023/08/11 04:12:45;;;;;;;3.90;1.92;;;;;;;16.95;66.03;96732.25;5013296;28;20046;-70
2023/08/11 04:15:12;;;;;;;2.20;2.00;;;;;;;17.50;65.06;96728.00;5013230;28;20054;-70
2023/08/11 04:17:41;;;;;;;2.78;1.92;;;;;;;18.06;62.40;96729.72;5013481;28;20129;-70
2023/08/11 04:20:12;;;;;;;3.15;2.10;;;;;;;18.59;61.51;96736.03;5015987;28;20046;-70
2023/08/11 04:22:40;;;;;;;2.05;1.95;;;;;;;19.17;59.90;96733.00;5017396;28;20491;-70
2023/08/11 04:25:09;;;;;;;1.90;1.70;;;;;;;19.75;58.02;96739.53;5017248;28;20050;-70
2023/08/11 04:27:36;;;;;;;8.63;2.78;;;;;;;20.30;55.52;96740.97;5017304;28;20042;-70
2023/08/11 04:30:04;;;;;;;1.52;1.42;;;;;;;20.63;54.22;96742.03;5017275;28;20053;-70
2023/08/11 04:32:31;;;;;;;3.13;1.88;;;;;;;20.62;52.83;96742.16;5017404;28;20053;-69
2023/08/11 04:35:00;;;;;;;2.00;1.90;;;;;;;20.06;54.20;96737.38;5017674;28;20100;-70
2023/08/11 04:37:27;;;;;;;2.30;2.08;;;;;;;19.59;54.75;96744.28;5017153;28;20053;-70
2023/08/11 04:39:54;;;;;;;3.15;1.80;;;;;;;19.14;56.45;96741.16;5017042;28;20124;-70
2023/08/11 04:42:21;;;;;;;2.80;1.90;;;;;;;19.06;58.00;96746.97;5016995;28;20042;-70
2023/08/11 04:44:49;;;;;;;2.55;2.30;;;;;;;19.46;58.64;96737.19;5017058;28;20045;-70
2023/08/11 04:47:16;;;;;;;1.80;1.70;;;;;;;19.72;58.39;96739.78;5017194;28;20097;-70
2023/08/11 04:49:45;;;;;;;1.77;1.60;;;;;;;19.95;58.69;96738.13;5016929;28;20058;-70
2023/08/11 04:52:14;;;;;;;1.83;1.73;;;;;;;20.53;54.34;96752.50;5016904;28;20058;-70
2023/08/11 04:54:41;;;;;;;2.83;2.25;;;;;;;20.90;52.55;96748.03;5016842;28;20136;-70
2023/08/11 04:57:08;;;;;;;2.15;1.90;;;;;;;21.27;50.87;96747.84;5016722;28;20120;-70
2023/08/11 04:59:36;;;;;;;1.70;1.60;;;;;;;21.69;50.19;96747.22;5016648;28;20133;-70
2023/08/11 05:02:03;;;;;;;1.80;1.65;;;;;;;22.03;48.69;96743.66;5016876;28;20053;-70
2023/08/11 05:04:31;;;;;;;1.60;1.50;;;;;;;22.46;48.55;96746.41;5016696;28;20050;-70
2023/08/11 05:06:59;;;;;;;1.55;1.45;;;;;;;22.74;47.30;96753.94;5016465;28;20081;-69
2023/08/11 05:09:27;;;;;;;3.85;1.88;;;;;;;22.69;47.75;96757.84;5016518;28;20484;-69
2023/08/11 05:11:55;;;;;;;3.45;1.73;;;;;;;23.01;46.57;96755.22;5016418;28;20050;-69
2023/08/11 05:14:23;;;;;;;3.88;1.52;;;;;;;23.33;44.52;96754.28;5016494;28;20093;-69
2023/08/11 05:16:50;;;;;;;3.35;1.67;;;;;;;23.38;44.65;96749.41;5016490;28;20050;-69
2023/08/11 05:19:17;;;;;;;2.13;1.88;;;;;;;23.17;45.22;96752.94;5016321;28;20455;-69
2023/08/11 05:21:44;;;;;;;3.95;1.77;;;;;;;22.87;45.72;96754.56;5016228;28;20049;-69
2023/08/11 05:24:11;;;;;;;2.55;1.75;;;;;;;22.73;46.29;96755.75;5016195;28;20377;-69
2023/08/11 05:26:40;;;;;;;2.28;1.70;;;;;;;22.74;46.60;96756.59;5016000;28;20042;-69
2023/08/11 05:29:07;;;;;;;2.22;1.73;;;;;;;23.07;45.65;96752.03;5016148;28;20080;-69
2023/08/11 05:31:34;;;;;;;3.03;1.60;;;;;;;23.39;45.97;96759.09;5015830;28;20137;-69
2023/08/11 05:34:01;;;;;;;2.25;1.48;;;;;;;23.47;44.53;96761.94;5016153;28;20419;-69
2023/08/11 05:36:29;;;;;;;1.88;1.77;;;;;;;23.86;45.07;96765.72;5016009;28;20463;-69
2023/08/11 05:38:56;;;;;;;2.55;1.70;;;;;;;24.19;43.83;96770.84;5015800;28;20085;-69
2023/08/11 05:41:23;;;;;;;2.15;1.60;;;;;;;24.31;43.72;96763.56;5015826;28;20057;-69
2023/08/11 05:43:52;;;;;;;1.92;1.63;;;;;;;24.57;43.15;96769.22;5016129;28;20053;-69
2023/08/11 05:46:19;;;;;;;1.85;1.50;;;;;;;24.80;42.34;96768.88;5015851;28;20054;-69
2023/08/11 05:48:48;;;;;;;1.65;1.55;;;;;;;24.70;41.93;96781.44;5015844;28;20128;-69
2023/08/11 05:51:16;;;;;;;2.22;1.73;;;;;;;24.83;42.05;96783.84;5015724;28;20049;-69
2023/08/11 05:53:43;;;;;;;2.15;1.60;;;;;;;25.13;41.75;96776.59;5015954;28;20046;-69
2023/08/11 05:56:10;;;;;;;1.50;1.30;;;;;;;25.57;41.53;96778.72;5015611;28;20056;-69
2023/08/11 05:58:37;;;;;;;1.58;1.40;;;;;;;25.83;41.17;96772.69;5015748;28;20045;-69
2023/08/11 06:01:06;;;;;;;1.90;1.70;;;;;;;25.81;40.66;96788.09;5015443;28;20516;-69
2023/08/11 06:03:33;;;;;;;1.45;1.35;;;;;;;25.93;40.13;96778.00;5015505;28;20042;-69
2023/08/11 06:06:01;;;;;;;1.95;1.77;;;;;;;26.33;39.71;96783.13;5015500;28;20056;-69
2023/08/11 06:08:28;;;;;;;2.10;1.52;;;;;;;26.79;39.02;96780.34;5015329;28;20049;-70
2023/08/11 06:10:56;;;;;;;2.28;1.35;;;;;;;27.15;39.03;96782.16;5015289;28;20181;-69
2023/08/11 06:13:24;;;;;;;1.60;1.40;;;;;;;27.35;37.66;96780.13;5015324;28;20057;-69
2023/08/11 06:15:52;;;;;;;2.28;1.60;;;;;;;27.60;37.24;96785.59;5015144;28;20482;-69
2023/08/11 06:18:21;;;;;;;6.30;1.40;;;;;;;27.74;35.59;96786.03;5015199;28;20096;-69
2023/08/11 06:20:48;;;;;;;2.05;1.58;;;;;;;27.64;35.42;96783.47;5015124;28;20458;-69
2023/08/11 06:23:16;;;;;;;1.55;1.40;;;;;;;27.44;36.27;96780.16;5015193;28;20077;-69
2023/08/11 06:25:43;;;;;;;1.58;1.45;;;;;;;26.93;36.87;96778.97;5014743;28;20046;-69
2023/08/11 06:28:11;;;;;;;2.03;1.60;;;;;;;26.62;37.41;96782.06;5015023;28;20085;-69
2023/08/11 06:30:37;;;;;;;2.67;1.40;;;;;;;26.70;36.87;96784.00;5015048;28;20080;-69
2023/08/11 06:33:05;;;;;;;3.65;1.65;;;;;;;26.27;38.38;96787.25;5015012;28;20046;-68
2023/08/11 06:35:34;;;;;;;2.20;1.40;;;;;;;26.23;37.56;96785.88;5014840;28;20079;-69
2023/08/11 06:38:02;;;;;;;1.83;1.58;;;;;;;26.37;37.83;96787.22;5014994;28;20054;-69
2023/08/11 06:40:30;;;;;;;4.07;1.50;;;;;;;26.76;38.32;96788.75;5014877;28;20050;-69
2023/08/11 06:42:57;;;;;;;6.13;1.70;;;;;;;27.19;36.08;96794.28;5014057;28;20137;-69
2023/08/11 06:45:24;;;;;;;1.90;1.65;;;;;;;27.32;36.52;96788.50;5014763;28;20050;-69
2023/08/11 06:47:52;;;;;;;2.53;1.65;;;;;;;27.59;34.72;96788.44;5014698;28;20045;-69
2023/08/11 06:50:19;;;;;;;2.38;1.52;;;;;;;27.85;35.36;96798.34;5014502;28;20050;-69
2023/08/11 06:52:48;;;;;;;1.60;1.50;;;;;;;27.77;34.70;96790.25;5014579;28;20107;-69
2023/08/11 06:55:15;;;;;;;1.48;1.38;;;;;;;28.17;35.57;96791.38;5014698;28;20120;-69
2023/08/11 06:57:42;;;;;;;3.35;1.70;;;;;;;28.05;35.08;96793.53;5014437;28;20157;-69
2023/08/11 07:00:11;;;;;;;3.40;1.77;;;;;;;27.98;35.38;96787.97;5014401;28;20053;-69
2023/08/11 07:02:39;;;;;;;2.67;1.60;;;;;;;28.15;33.62;96793.41;5014332;28;20050;-69
2023/08/11 07:05:06;;;;;;;1.60;1.42;;;;;;;27.95;34.78;96798.19;5014327;28;20045;-69
2023/08/11 07:07:34;;;;;;;2.72;1.45;;;;;;;27.74;35.62;96792.25;5014189;28;20395;-69
2023/08/11 07:10:03;;;;;;;1.92;1.60;;;;;;;27.49;34.67;96794.81;5014184;28;20061;-69
2023/08/11 07:12:30;;;;;;;1.50;1.35;;;;;;;27.60;36.00;96798.22;5014219;28;20137;-69
2023/08/11 07:14:57;;;;;;;2.78;1.52;;;;;;;27.87;33.97;96796.31;5014139;28;20549;-69
2023/08/11 07:17:25;;;;;;;2.10;1.30;;;;;;;27.93;34.36;96792.16;5014103;28;20089;-69
2023/08/11 07:19:52;;;;;;;2.85;1.42;;;;;;;28.37;34.56;96799.19;5014092;28;20132;-69
2023/08/11 07:22:19;;;;;;;5.70;1.63;;;;;;;28.72;34.35;96794.50;5013999;28;20054;-69
2023/08/11 07:24:46;;;;;;;1.65;1.25;;;;;;;28.94;33.36;96789.50;5013649;28;20053;-69
2023/08/11 07:27:15;;;;;;;2.47;1.60;;;;;;;28.85;32.53;96793.19;5013980;28;20133;-69
2023/08/11 07:29:42;;;;;;;6.82;1.48;;;;;;;28.71;34.46;96797.41;5013972;28;20046;-69
2023/08/11 07:32:10;;;;;;;4.32;1.65;;;;;;;28.98;31.79;96801.63;5013922;28;20045;-69
2023/08/11 07:34:38;;;;;;;4.15;1.70;;;;;;;29.01;32.90;96797.75;5013860;28;20125;-68
2023/08/11 07:37:05;;;;;;;2.30;1.48;;;;;;;28.92;32.34;96813.03;5013813;28;20057;-69
2023/08/11 07:39:33;;;;;;;1.98;1.27;;;;;;;29.05;32.07;96817.09;5013720;28;20419;-69
2023/08/11 07:42:02;;;;;;;2.28;1.35;;;;;;;28.85;32.10;96812.88;5013549;28;20058;-69
2023/08/11 07:44:32;;;;;;;2.17;1.42;;;;;;;28.78;33.30;96811.88;5013679;28;20046;-69
2023/08/11 07:47:00;;;;;;;3.60;1.30;;;;;;;28.80;33.81;96809.00;5013630;28;20054;-69
2023/08/11 07:49:27;;;;;;;2.85;1.55;;;;;;;29.13;33.39;96819.78;5013744;28;20492;-69
2023/08/11 07:51:57;;;;;;;4.80;1.63;;;;;;;28.97;30.81;96809.88;5013577;28;20100;-69
2023/08/11 07:54:24;;;;;;;1.77;1.50;;;;;;;28.68;31.19;96808.50;5013383;28;20050;-69
2023/08/11 07:56:51;;;;;;;2.28;1.52;;;;;;;28.65;32.92;96806.97;5013513;28;20056;-69
2023/08/11 07:59:18;;;;;;;3.90;1.42;;;;;;;28.80;32.74;96812.53;5013562;28;20053;-69
2023/08/11 08:01:47;;;;;;;2.60;1.52;;;;;;;28.75;31.46;96804.94;5013434;28;20046;-69
2023/08/11 08:04:14;;;;;;;2.38;1.50;;;;;;;28.76;32.60;96812.03;5013355;28;20053;-69
2023/08/11 08:06:45;;;;;;;2.92;1.50;;;;;;;28.40;32.85;96816.84;5013460;28;20104;-69
2023/08/11 08:09:14;;;;;;;2.50;1.50;;;;;;;28.61;32.37;96806.47;5013378;28;20042;-69
2023/08/11 08:11:42;;;;;;;1.73;1.50;;;;;;;28.92;30.97;96804.94;5013358;28;20046;-69
2023/08/11 08:14:10;;;;;;;2.17;1.52;;;;;;;29.19;32.30;96805.63;5013337;28;20056;-69
2023/08/11 08:16:38;;;;;;;4.93;1.50;;;;;;;29.58;29.59;96800.53;5013267;28;20125;-69
2023/08/11 08:19:07;;;;;;;1.48;1.10;;;;;;;29.29;29.45;96807.31;5013266;28;20124;-69
2023/08/11 08:21:34;;;;;;;1.55;1.45;;;;;;;29.26;31.15;96803.13;5013163;28;20133;-69
2023/08/11 08:24:04;;;;;;;1.70;1.50;;;;;;;29.15;32.11;96801.59;5013175;28;20069;-69
2023/08/11 08:26:31;;;;;;;1.80;1.58;;;;;;;29.04;31.63;96810.88;5013035;28;20116;-69
2023/08/11 08:28:59;;;;;;;2.15;1.40;;;;;;;29.12;31.96;96802.81;5013169;28;20061;-69
2023/08/11 08:31:27;;;;;;;1.23;1.13;;;;;;;29.31;31.46;96813.38;5013222;28;20485;-69
2023/08/11 08:33:54;;;;;;;1.35;1.20;;;;;;;29.60;30.27;96795.81;5013082;28;20108;-69
2023/08/11 08:36:23;;;;;;;1.45;1.23;;;;;;;29.42;30.62;96812.16;5013149;28;20042;-69
2023/08/11 08:38:50;;;;;;;2.08;1.25;;;;;;;28.89;31.13;96799.91;5013032;28;20121;-69
2023/08/11 08:41:23;;;;;;;1.88;1.40;;;;;;;28.44;32.27;96802.91;5013011;28;20529;-69
2023/08/11 08:43:51;;;;;;;1.75;1.20;;;;;;;27.86;33.54;96803.56;5013031;28;20053;-69
2023/08/11 08:46:21;;;;;;;2.80;1.25;;;;;;;27.45;33.84;96801.47;5013015;28;20564;-69
2023/08/11 08:48:57;;;;;;;2.28;1.40;;;;;;;27.08;34.01;96799.88;5013018;28;20132;-68
2023/08/11 08:51:27;;;;;;;4.57;1.48;;;;;;;27.40;34.61;96798.44;5012939;28;20137;-69
2023/08/11 08:53:54;;;;;;;3.58;1.27;;;;;;;27.85;33.60;96799.19;5012979;28;20049;-69
2023/08/11 08:56:23;;;;;;;2.67;1.10;;;;;;;28.42;33.29;96799.56;5013083;28;20081;-69
2023/08/11 08:58:50;;;;;;;3.22;1.38;;;;;;;28.73;32.24;96800.75;5012844;28;20103;-69
2023/08/11 09:01:19;;;;;;;1.30;1.20;;;;;;;28.74;32.24;96788.97;5012857;28;20046;-69
2023/08/11 09:03:49;;;;;;;1.98;1.40;;;;;;;28.91;32.15;96795.19;5013048;28;20106;-69
2023/08/11 09:06:17;;;;;;;2.87;1.57;;;;;;;29.03;33.04;96797.56;5015563;28;20045;-69
2023/08/11 09:08:47;;;;;;;2.28;1.23;;;;;;;28.98;31.15;96793.53;5016623;28;20054;-69
2023/08/11 09:11:14;;;;;;;2.95;1.52;;;;;;;29.15;32.34;96796.22;5016617;28;20053;-69
2023/08/11 09:13:45;;;;;;;1.52;1.27;;;;;;;29.36;31.34;96803.75;5016358;28;20487;-69
2023/08/11 09:16:13;;;;;;;1.58;1.30;;;;;;;29.09;31.88;96807.66;5016416;28;20060;-69
2023/08/11 09:18:40;;;;;;;1.83;1.48;;;;;;;29.14;30.65;96803.44;5016279;28;20056;-69
2023/08/11 09:21:08;;;;;;;2.67;1.50;;;;;;;28.68;32.05;96800.44;5016419;28;20237;-68
2023/08/11 09:23:37;;;;;;;1.42;1.33;;;;;;;27.75;32.32;96795.78;5016309;28;20081;-68
2023/08/11 09:26:06;;;;;;;1.60;1.50;;;;;;;27.14;33.31;96799.28;5016035;28;20057;-68
2023/08/11 09:28:33;;;;;;;1.95;1.50;;;;;;;26.91;33.37;96796.22;5016230;28;20502;-68
2023/08/11 09:31:02;;;;;;;2.88;1.40;;;;;;;26.69;33.99;96799.22;5016177;28;20053;-68
2023/08/11 09:33:30;;;;;;;4.80;1.50;;;;;;;26.71;34.12;96802.63;5016128;28;20050;-68
2023/08/11 09:35:57;;;;;;;1.88;1.40;;;;;;;26.74;34.50;96793.41;5016094;28;20454;-68
2023/08/11 09:38:26;;;;;;;1.52;1.27;;;;;;;26.85;35.08;96800.38;5015896;28;20111;-68
2023/08/11 09:41:02;;;;;;;5.60;2.15;;;;;;;26.79;34.99;96795.63;5015919;28;20053;-68
2023/08/11 09:43:33;;;;;;;1.75;1.50;;;;;;;26.39;34.74;96793.25;5015757;28;20054;-68
2023/08/11 09:46:03;;;;;;;2.40;1.45;;;;;;;26.14;35.79;96790.28;5015855;28;20128;-68
2023/08/11 09:48:31;;;;;;;1.97;1.50;;;;;;;25.84;36.35;96790.47;5015932;28;20481;-68
2023/08/11 09:50:58;;;;;;;2.15;1.30;;;;;;;26.25;37.25;96787.38;5015722;28;20303;-68
2023/08/11 09:53:27;;;;;;;2.13;1.70;;;;;;;26.73;34.94;96797.91;5015737;28;20054;-68
2023/08/11 09:55:58;;;;;;;3.50;1.45;;;;;;;27.08;34.78;96799.88;5015632;28;20108;-68
2023/08/11 09:58:29;;;;;;;1.50;1.40;;;;;;;27.46;34.63;96796.94;5015567;28;20053;-69
2023/08/11 10:00:59;;;;;;;5.25;1.90;;;;;;;27.83;32.79;96797.66;5015529;28;20085;-69
2023/08/11 10:03:31;;;;;;;3.33;2.13;;;;;;;28.13;33.61;96800.78;5015429;28;20058;-68
2023/08/11 10:06:01;;;;;;;2.60;1.60;;;;;;;28.33;32.48;96793.31;5015457;28;20465;-69
2023/08/11 10:08:31;;;;;;;3.10;1.40;;;;;;;28.55;32.69;96795.53;5015359;28;20477;-68
2023/08/11 10:11:00;;;;;;;1.52;1.42;;;;;;;28.41;32.28;96799.72;5015417;28;20050;-69
2023/08/11 10:13:29;;;;;;;1.77;1.35;;;;;;;27.78;32.70;96789.25;5015252;28;20085;-68
2023/08/11 10:15:59;;;;;;;3.08;1.50;;;;;;;27.71;32.80;96783.66;5014796;28;20476;-68
2023/08/11 10:18:26;;;;;;;1.85;1.45;;;;;;;27.52;33.10;96792.78;5014502;28;20045;-69
2023/08/11 10:20:56;;;;;;;2.53;1.48;;;;;;;27.72;33.11;96786.19;5015162;28;20056;-68
2023/08/11 10:23:24;;;;;;;1.48;1.38;;;;;;;28.00;32.30;96774.38;5014828;28;20085;-68
2023/08/11 10:25:57;;;;;;;1.45;1.35;;;;;;;28.00;32.25;96783.25;5014828;28;20053;-68
2023/08/11 10:28:24;;;;;;;2.78;1.42;;;;;;;28.13;33.95;96779.28;5015073;28;20046;-69
2023/08/11 10:31:02;;;;;;;1.55;1.40;;;;;;;28.49;30.72;96779.06;5014971;28;20100;-69
2023/08/11 10:33:31;;;;;;;3.78;1.55;;;;;;;28.73;32.79;96779.22;5014996;28;20481;-69
2023/08/11 10:36:01;;;;;;;2.63;1.38;;;;;;;28.46;30.95;96786.59;5014877;28;20054;-68
2023/08/11 10:38:29;;;;;;;3.00;1.58;;;;;;;28.13;31.29;96782.81;5014737;28;20046;-68
2023/08/11 10:41:02;;;;;;;1.55;1.45;;;;;;;27.97;32.17;96777.41;5014795;28;20057;-68
2023/08/11 10:43:34;;;;;;;2.50;1.38;;;;;;;28.04;32.27;96778.41;5014761;28;20050;-69
2023/08/11 10:46:23;;;;;;;1.58;1.45;;;;;;;27.63;32.85;96776.38;5014548;28;20057;-68
2023/08/11 10:48:52;;;;;;;1.83;1.40;;;;;;;27.46;33.48;96778.16;5014689;28;20068;-68
2023/08/11 10:51:29;;;;;;;4.13;1.35;;;;;;;27.20;33.55;96779.84;5014825;28;20081;-69
2023/08/11 10:54:11;;;;;;;1.60;1.40;;;;;;;26.91;34.51;96783.63;5014742;28;20062;-69
2023/08/11 10:56:44;;;;;;;2.67;1.90;;;;;;;26.66;34.80;96782.63;5014632;28;20049;-68
2023/08/11 10:59:18;;;;;;;3.58;1.50;;;;;;;26.87;35.51;96780.44;5014545;28;20049;-68
2023/08/11 11:01:52;;;;;;;7.82;1.60;;;;;;;26.90;33.20;96786.50;5014373;28;20057;-68
2023/08/11 11:04:22;;;;;;;3.05;1.55;;;;;;;27.09;33.09;96767.53;5014353;28;20116;-68
2023/08/11 11:06:54;;;;;;;1.67;1.50;;;;;;;27.34;32.95;96775.75;5014350;28;20089;-68
2023/08/11 11:09:23;;;;;;;2.13;1.50;;;;;;;27.50;30.97;96774.16;5014231;28;20132;-68
2023/08/11 11:11:56;;;;;;;2.05;1.30;;;;;;;27.68;29.98;96775.94;5014253;28;20065;-68
2023/08/11 11:14:27;;;;;;;8.63;1.45;;;;;;;27.85;31.37;96772.31;5014124;28;20042;-68
2023/08/11 11:16:58;;;;;;;3.78;1.33;;;;;;;28.21;30.34;96765.03;5014025;28;20053;-69
2023/08/11 11:19:26;;;;;;;4.00;1.60;;;;;;;28.48;30.41;96768.47;5014088;28;20045;-69
2023/08/11 11:21:56;;;;;;;5.10;1.50;;;;;;;28.53;29.67;96770.66;5014003;28;20050;-68
2023/08/11 11:24:24;;;;;;;2.13;1.30;;;;;;;28.40;30.23;96785.41;5014080;28;20123;-68
2023/08/11 11:26:56;;;;;;;2.13;1.30;;;;;;;28.00;30.71;96783.25;5013916;28;20048;-68
2023/08/11 11:29:27;;;;;;;1.70;1.45;;;;;;;27.83;31.14;96778.84;5013613;28;20100;-68
2023/08/11 11:32:04;;;;;;;2.38;1.67;;;;;;;28.06;31.14;96779.09;5013863;28;20059;-68
2023/08/11 11:34:39;;;;;;;3.45;1.42;;;;;;;28.41;30.89;96772.81;5013839;28;20124;-68
2023/08/11 11:37:10;;;;;;;1.30;1.20;;;;;;;28.24;31.54;96778.97;5013807;28;20137;-69
2023/08/11 11:39:37;;;;;;;3.05;1.67;;;;;;;27.85;31.39;96774.16;5013599;28;20057;-68